createdAt,value
2019-04-10T00:01:19.930Z,46.23
2019-04-10T00:03:50.458Z,57.05
2019-04-10T00:06:21.551Z,49.15
2019-04-10T00:08:53.446Z,48.90
2019-04-10T00:11:24.939Z,53.92
2019-04-10T00:13:56.649Z,47.27
2019-04-10T00:16:27.754Z,52.60
2019-04-10T00:18:58.188Z,48.17
2019-04-10T00:21:29.249Z,54.58
2019-04-10T00:23:59.716Z,53.98
2019-04-10T00:26:29.934Z,55.12
2019-04-10T00:29:00.259Z,56.80
2019-04-10T00:31:30.426Z,51.80
2019-04-10T00:34:01.129Z,50.28
2019-04-10T00:36:31.267Z,47.98
2019-04-10T00:39:02.285Z,49.63
2019-04-10T00:41:32.555Z,49.55
2019-04-10T00:44:03.532Z,52.98
2019-04-10T00:46:34.624Z,56.25
2019-04-10T00:49:05.066Z,48.08
2019-04-10T00:51:36.036Z,50.83
2019-04-10T00:54:06.139Z,54.23
2019-04-10T00:56:36.863Z,51.20
2019-04-10T00:59:08.719Z,58.60
2019-04-10T01:01:38.905Z,52.70
2019-04-10T01:04:10.551Z,61.37
2019-04-10T01:06:44.204Z,50.95
2019-04-10T01:09:15.366Z,54.63
2019-04-10T01:11:45.766Z,52.35
2019-04-10T01:14:16.258Z,54.65
2019-04-10T01:16:47.376Z,55.48
2019-04-10T01:19:18.155Z,52.38
2019-04-10T01:21:48.333Z,53.75
2019-04-10T01:24:19.531Z,57.20
2019-04-10T01:26:49.748Z,60.12
2019-04-10T01:29:19.872Z,54.13
2019-04-10T01:31:51.114Z,59.55
2019-04-10T01:34:22.346Z,51.75
2019-04-10T01:36:52.520Z,59.95
2019-04-10T01:39:26.901Z,60.12
2019-04-10T01:41:57.043Z,52.90
2019-04-10T01:44:27.124Z,53.98
2019-04-10T01:46:57.556Z,57.33
2019-04-10T01:49:27.683Z,58.13
2019-04-10T01:51:57.887Z,56.42
2019-04-10T01:54:28.512Z,48.17
2019-04-10T01:56:59.571Z,53.58
2019-04-10T01:59:32.126Z,51.92
2019-04-10T02:02:14.768Z,58.30
2019-04-10T02:04:45.418Z,58.00
2019-04-10T02:07:16.110Z,61.25
2019-04-10T02:09:47.651Z,67.65
2019-04-10T02:12:18.653Z,59.27
2019-04-10T02:14:48.980Z,61.73
2019-04-10T02:17:20.179Z,66.97
2019-04-10T02:19:50.376Z,64.42
2019-04-10T02:22:20.474Z,62.75
2019-04-10T02:24:51.479Z,61.28
2019-04-10T02:27:22.518Z,63.15
2019-04-10T02:29:53.845Z,67.27
2019-04-10T02:32:24.258Z,65.80
2019-04-10T02:34:55.266Z,69.05
2019-04-10T02:37:27.050Z,65.97
2019-04-10T02:40:02.276Z,65.70
2019-04-10T02:42:32.250Z,69.80
2019-04-10T02:45:02.800Z,69.15
2019-04-10T02:47:34.607Z,63.63
2019-04-10T02:50:07.952Z,66.50
2019-04-10T02:52:38.999Z,68.20
2019-04-10T02:55:11.719Z,62.13
2019-04-10T02:57:41.588Z,59.38
2019-04-10T03:00:13.941Z,62.13
2019-04-10T03:02:45.328Z,62.70
2019-04-10T03:05:17.634Z,68.35
2019-04-10T03:07:50.138Z,78.80
2019-04-10T03:10:29.613Z,71.55
2019-04-10T03:12:52.748Z,77.70
2019-04-10T03:15:23.387Z,74.05
2019-04-10T03:17:54.310Z,77.05
2019-04-10T03:20:24.693Z,79.95
2019-04-10T03:22:55.449Z,80.67
2019-04-10T03:25:26.632Z,83.40
2019-04-10T03:27:56.849Z,81.92
2019-04-10T03:30:27.413Z,89.52
2019-04-10T03:33:20.942Z,93.35
2019-04-10T03:35:52.179Z,95.92
2019-04-10T03:38:22.354Z,96.78
2019-04-10T03:40:53.446Z,96.25
2019-04-10T03:43:25.822Z,96.28
2019-04-10T03:45:57.135Z,95.62
2019-04-10T03:48:27.348Z,100.53
2019-04-10T03:50:58.595Z,100.27
2019-04-10T03:53:29.854Z,102.58
2019-04-10T03:56:01.297Z,100.92
2019-04-10T03:58:31.580Z,100.20
2019-04-10T04:01:02.667Z,91.50
2019-04-10T04:03:33.045Z,102.72
2019-04-10T04:06:03.617Z,103.90
2019-04-10T04:08:35.289Z,103.50
2019-04-10T04:11:05.896Z,94.92
2019-04-10T04:13:36.000Z,100.92
2019-04-10T04:16:06.755Z,110.10
2019-04-10T04:18:39.396Z,111.50
2019-04-10T04:21:09.715Z,104.30
2019-04-10T04:23:44.940Z,110.42
2019-04-10T04:26:19.058Z,109.25
2019-04-10T04:28:51.581Z,106.30
2019-04-10T04:31:22.814Z,123.25
2019-04-10T04:33:53.348Z,109.65
2019-04-10T04:36:24.625Z,101.65
2019-04-10T04:38:54.774Z,109.42
2019-04-10T04:41:25.313Z,105.52
2019-04-10T04:43:55.669Z,109.60
2019-04-10T04:46:26.072Z,109.52
2019-04-10T04:48:56.353Z,105.07
2019-04-10T04:51:29.310Z,107.27
2019-04-10T04:53:59.636Z,112.32
2019-04-10T04:56:29.764Z,101.02
2019-04-10T04:58:59.888Z,112.72
2019-04-10T05:01:30.004Z,116.20
2019-04-10T05:04:00.380Z,120.28
2019-04-10T05:06:30.929Z,107.12
2019-04-10T05:09:01.083Z,105.43
2019-04-10T05:11:34.391Z,112.03
2019-04-10T05:14:07.565Z,118.42
2019-04-10T05:16:39.537Z,104.95
2019-04-10T05:19:12.234Z,115.12
2019-04-10T05:21:43.630Z,108.42
2019-04-10T05:24:15.890Z,117.70
2019-04-10T05:26:47.453Z,117.03
2019-04-10T05:29:18.184Z,110.05
2019-04-10T05:31:48.965Z,105.00
2019-04-10T05:34:19.891Z,99.25
2019-04-10T05:36:51.248Z,99.77
2019-04-10T05:39:22.411Z,120.35
2019-04-10T05:41:52.736Z,110.03
2019-04-10T05:44:23.561Z,110.40
2019-04-10T05:46:54.865Z,120.50
2019-04-10T05:49:25.337Z,116.50
2019-04-10T05:51:55.633Z,107.40
2019-04-10T05:54:26.864Z,105.63
2019-04-10T05:56:57.093Z,123.20
2019-04-10T05:59:28.086Z,116.03
2019-04-10T06:01:58.959Z,122.90
2019-04-10T06:04:29.472Z,116.40
2019-04-10T06:06:59.677Z,117.00
2019-04-10T06:09:31.036Z,113.25
2019-04-10T06:12:03.449Z,113.85
2019-04-10T06:14:33.100Z,108.63
2019-04-10T06:17:04.260Z,111.37
2019-04-10T06:19:34.561Z,110.75
2019-04-10T06:22:05.671Z,108.42
2019-04-10T06:24:36.414Z,107.30
2019-04-10T06:27:08.199Z,108.63
2019-04-10T06:29:39.325Z,115.50
2019-04-10T06:32:09.547Z,112.15
2019-04-10T06:34:40.766Z,108.10
2019-04-10T06:37:11.578Z,102.22
2019-04-10T06:39:44.541Z,117.65
2019-04-10T06:42:14.294Z,96.72
2019-04-10T06:44:44.642Z,95.80
2019-04-10T06:47:16.116Z,107.47
2019-04-10T06:49:46.249Z,99.42
2019-04-10T06:52:16.695Z,99.30
2019-04-10T06:54:47.033Z,91.80
2019-04-10T06:57:17.105Z,94.15
2019-04-10T06:59:48.209Z,89.47
2019-04-10T07:02:27.397Z,99.60
2019-04-10T07:04:55.949Z,100.82
2019-04-10T07:07:25.523Z,96.02
2019-04-10T07:09:57.142Z,106.83
2019-04-10T07:12:30.119Z,101.82
2019-04-10T07:14:59.727Z,106.60
2019-04-10T07:17:30.217Z,101.27
2019-04-10T07:20:00.343Z,101.30
2019-04-10T07:22:31.118Z,101.12
2019-04-10T07:25:02.856Z,101.20
2019-04-10T07:27:36.039Z,106.60
2019-04-10T07:30:11.774Z,103.15
2019-04-10T07:32:45.668Z,103.32
2019-04-10T07:35:16.750Z,114.80
2019-04-10T07:37:46.567Z,107.50
2019-04-10T07:40:18.501Z,113.97
2019-04-10T07:42:48.903Z,105.65
2019-04-10T07:45:19.178Z,107.60
2019-04-10T07:47:49.529Z,108.72
2019-04-10T07:50:20.557Z,105.65
2019-04-10T07:52:52.005Z,106.95
2019-04-10T07:55:23.860Z,97.40
2019-04-10T07:57:55.150Z,96.45
2019-04-10T08:00:26.855Z,96.37
2019-04-10T08:02:57.642Z,100.78
2019-04-10T08:05:27.868Z,88.52
2019-04-10T08:07:59.023Z,94.13
2019-04-10T08:10:29.286Z,97.30
2019-04-10T08:13:00.313Z,95.47
2019-04-10T08:15:31.569Z,86.40
2019-04-10T08:18:02.579Z,93.17
2019-04-10T08:20:33.053Z,83.27
2019-04-10T08:23:03.665Z,87.15
2019-04-10T08:25:35.302Z,86.40
2019-04-10T08:28:05.572Z,88.90
2019-04-10T08:30:36.350Z,86.60
2019-04-10T08:33:07.865Z,89.67
2019-04-10T08:35:38.006Z,95.12
2019-04-10T08:38:08.100Z,86.28
2019-04-10T08:40:38.400Z,94.25
2019-04-10T08:43:08.527Z,86.72
2019-04-10T08:45:46.204Z,86.70
2019-04-10T08:48:13.446Z,99.80
2019-04-10T08:50:44.752Z,92.35
2019-04-10T08:53:16.612Z,85.30
2019-04-10T08:55:46.744Z,83.30
2019-04-10T08:58:20.806Z,81.65
2019-04-10T09:00:52.996Z,83.33
2019-04-10T09:03:24.611Z,82.60
2019-04-10T09:05:55.382Z,96.35
2019-04-10T09:08:26.563Z,93.47
2019-04-10T09:10:56.847Z,80.15
2019-04-10T09:13:27.022Z,79.67
2019-04-10T09:15:58.268Z,86.78
2019-04-10T09:18:29.484Z,78.33
2019-04-10T09:21:02.700Z,71.57
2019-04-10T09:23:42.605Z,72.50
2019-04-10T09:26:05.839Z,77.47
2019-04-10T09:28:38.367Z,75.32
2019-04-10T09:31:09.411Z,79.40
2019-04-10T09:33:40.123Z,75.22
2019-04-10T09:36:11.173Z,76.60
2019-04-10T09:38:44.165Z,75.75
2019-04-10T09:41:17.486Z,74.17
2019-04-10T09:43:48.289Z,80.07
2019-04-10T09:46:18.575Z,80.10
2019-04-10T09:48:49.867Z,76.65
2019-04-10T09:51:21.367Z,69.92
2019-04-10T09:53:51.746Z,74.15
2019-04-10T09:56:22.828Z,78.60
2019-04-10T09:58:53.675Z,70.25
2019-04-10T10:01:24.320Z,67.95
2019-04-10T10:03:54.807Z,71.82
2019-04-10T10:06:30.697Z,73.90
2019-04-10T10:08:58.385Z,74.25
2019-04-10T10:11:28.707Z,78.42
2019-04-10T10:13:59.816Z,69.07
2019-04-10T10:16:30.428Z,78.87
2019-04-10T10:19:04.036Z,66.47
2019-04-10T10:21:36.629Z,75.87
2019-04-10T10:24:07.254Z,72.22
2019-04-10T10:26:37.398Z,76.72
2019-04-10T10:29:07.482Z,69.80
2019-04-10T10:31:38.026Z,72.08
2019-04-10T10:34:08.310Z,75.57
2019-04-10T10:36:43.411Z,67.27
2019-04-10T10:39:21.152Z,72.70
2019-04-10T10:41:51.937Z,66.15
2019-04-10T10:44:23.972Z,75.10
2019-04-10T10:46:54.122Z,62.00
2019-04-10T10:49:26.474Z,66.02
2019-04-10T10:51:57.269Z,69.00
2019-04-10T10:54:27.915Z,65.47
2019-04-10T10:56:58.511Z,67.90
2019-04-10T10:59:30.768Z,67.87
2019-04-10T11:02:04.721Z,67.50
2019-04-10T11:04:37.867Z,74.32
2019-04-10T11:07:08.647Z,66.82
2019-04-10T11:09:40.221Z,72.60
2019-04-10T11:12:12.149Z,75.50
2019-04-10T11:14:43.685Z,60.10
2019-04-10T11:17:15.522Z,77.35
2019-04-10T11:19:47.328Z,67.17
2019-04-10T11:22:22.503Z,70.95
2019-04-10T11:25:23.787Z,70.03
2019-04-10T11:27:54.304Z,66.53
2019-04-10T11:30:28.648Z,69.67
2019-04-10T11:33:02.580Z,73.90
2019-04-10T11:35:33.304Z,74.95
2019-04-10T11:38:07.178Z,67.10
2019-04-10T11:40:39.062Z,72.53
2019-04-10T11:43:10.107Z,76.20
2019-04-10T11:45:46.528Z,71.15
2019-04-10T11:48:16.435Z,76.15
2019-04-10T11:50:48.505Z,75.67
2019-04-10T11:53:21.492Z,73.07
2019-04-10T11:56:10.735Z,66.70
2019-04-10T12:01:14.700Z,72.37
2019-04-10T12:03:49.080Z,70.12
2019-04-10T12:06:24.693Z,67.85
2019-04-10T12:09:19.493Z,62.30
2019-04-10T12:11:27.226Z,60.03
2019-04-10T12:14:00.813Z,61.70
2019-04-10T12:16:33.632Z,57.93
2019-04-10T12:19:06.922Z,64.40
2019-04-10T12:21:39.963Z,60.35
2019-04-10T12:24:11.507Z,65.05
2019-04-10T12:26:45.632Z,60.48
2019-04-10T12:29:16.266Z,59.20
2019-04-10T12:31:48.221Z,58.30
2019-04-10T12:34:18.665Z,59.00
2019-04-10T12:36:51.798Z,60.23
2019-04-10T12:39:22.677Z,53.68
2019-04-10T12:41:55.446Z,61.42
2019-04-10T12:44:29.733Z,58.05
2019-04-10T12:47:01.734Z,59.70
2019-04-10T12:49:34.542Z,53.83
2019-04-10T12:56:06.030Z,56.02
2019-04-10T12:58:46.697Z,57.67
2019-04-10T13:02:02.892Z,61.85
2019-04-10T13:04:43.104Z,59.93
2019-04-10T13:08:14.648Z,60.63
2019-04-10T13:10:45.582Z,53.60
2019-04-10T13:13:16.139Z,53.48
2019-04-10T13:15:49.769Z,61.77
2019-04-10T13:18:24.665Z,61.00
2019-04-10T13:20:56.505Z,54.13
2019-04-10T13:23:32.961Z,63.63
2019-04-10T13:26:06.437Z,58.00
2019-04-10T13:28:37.144Z,59.03
2019-04-10T13:31:10.871Z,61.75
2019-04-10T13:33:43.264Z,53.58
2019-04-10T13:36:15.442Z,59.30
2019-04-10T13:38:46.465Z,59.33
2019-04-10T13:41:18.579Z,61.08
2019-04-10T13:43:51.844Z,59.00
2019-04-10T13:46:25.156Z,63.55
2019-04-10T13:48:57.597Z,56.53
2019-04-10T13:51:31.760Z,57.95
2019-04-10T13:54:02.137Z,56.92
2019-04-10T13:56:33.414Z,60.65
2019-04-10T13:59:09.062Z,59.48
2019-04-10T14:01:42.422Z,54.67
2019-04-10T14:04:14.684Z,56.90
2019-04-10T14:06:47.706Z,63.95
2019-04-10T14:09:31.135Z,52.98
2019-04-10T14:11:51.608Z,58.23
2019-04-10T14:14:24.566Z,56.18
2019-04-10T14:16:55.752Z,49.95
2019-04-10T14:19:29.856Z,54.67
2019-04-10T14:22:01.905Z,53.87
2019-04-10T14:24:40.444Z,54.23
2019-04-10T14:27:06.125Z,59.38
2019-04-10T14:29:44.791Z,56.85
2019-04-10T14:32:27.896Z,49.05
2019-04-10T14:35:01.025Z,55.83
2019-04-10T14:37:35.673Z,48.10
2019-04-10T14:40:09.036Z,54.55
2019-04-10T14:42:42.458Z,55.58
2019-04-10T14:45:13.362Z,61.25
2019-04-10T14:47:44.636Z,59.83
2019-04-10T14:50:23.916Z,51.33
2019-04-10T14:52:59.433Z,48.05
2019-04-10T14:55:33.763Z,55.10
2019-04-10T14:58:05.545Z,48.60
2019-04-10T15:00:50.230Z,57.75
2019-04-10T15:03:24.371Z,52.17
2019-04-10T15:05:57.086Z,47.00
2019-04-10T15:08:36.298Z,49.42
2019-04-10T15:11:10.738Z,49.13
2019-04-10T15:14:01.481Z,48.10
2019-04-10T15:16:36.898Z,48.55
2019-04-10T15:19:49.513Z,44.10
2019-04-10T15:22:23.491Z,43.63
2019-04-10T15:24:59.369Z,40.10
2019-04-10T15:27:30.327Z,38.83
2019-04-10T15:30:04.323Z,33.23
2019-04-10T15:32:35.922Z,33.15
2019-04-10T15:35:08.304Z,36.42
2019-04-10T15:37:41.628Z,31.85
2019-04-10T15:40:20.902Z,31.80
2019-04-10T15:42:49.806Z,30.70
2019-04-10T15:45:35.749Z,33.20
2019-04-10T15:48:06.837Z,34.25
2019-04-10T15:50:51.788Z,33.18
2019-04-10T15:53:32.182Z,31.65
2019-04-10T15:56:25.546Z,31.68
2019-04-10T15:58:57.988Z,30.48
2019-04-10T16:01:37.227Z,33.88
2019-04-10T16:04:12.074Z,29.82
2019-04-10T16:06:49.952Z,32.58
2019-04-10T16:09:25.307Z,28.98
2019-04-10T16:12:22.746Z,35.75
2019-04-10T16:15:06.416Z,34.43
2019-04-10T16:18:05.177Z,30.60
2019-04-10T16:20:37.540Z,29.95
2019-04-10T16:23:18.393Z,30.32
2019-04-10T16:25:54.367Z,28.85
2019-04-10T16:28:27.035Z,30.23
2019-04-10T16:31:01.595Z,28.27
2019-04-10T16:33:41.314Z,28.62
2019-04-10T16:40:24.959Z,28.60
2019-04-10T16:42:57.340Z,31.50
2019-04-10T16:45:32.773Z,29.02
2019-04-10T16:48:06.875Z,24.98
2019-04-10T16:50:44.180Z,30.72
2019-04-10T16:53:25.777Z,30.17
2019-04-10T16:56:40.227Z,31.70
2019-04-10T16:59:12.725Z,38.17
2019-04-10T17:02:00.308Z,31.45
2019-04-10T17:07:23.542Z,29.72
2019-04-10T17:09:53.766Z,27.27
2019-04-10T17:15:15.986Z,33.88
2019-04-10T17:17:46.460Z,30.50
2019-04-10T17:20:18.385Z,30.52
2019-04-10T17:22:50.326Z,28.62
2019-04-10T17:25:26.521Z,29.25
2019-04-10T17:27:57.085Z,24.52
2019-04-10T17:30:30.752Z,29.67
2019-04-10T17:33:02.717Z,26.05
2019-04-10T17:35:35.979Z,27.55
2019-04-10T17:38:06.751Z,28.83
2019-04-10T17:40:46.370Z,28.67
2019-04-10T17:43:13.850Z,30.20
2019-04-10T17:45:47.171Z,25.12
2019-04-10T17:48:19.776Z,28.52
2019-04-10T17:50:53.158Z,27.93
2019-04-10T17:53:26.605Z,28.12
2019-04-10T17:55:58.073Z,28.32
2019-04-10T17:58:29.597Z,31.65
2019-04-10T18:01:01.878Z,28.57
2019-04-10T18:03:42.943Z,30.88
2019-04-10T18:06:05.296Z,29.37
2019-04-10T18:08:38.360Z,37.48
2019-04-10T18:11:10.000Z,36.25
2019-04-10T18:13:44.952Z,33.05
2019-04-10T18:16:17.898Z,32.17
2019-04-10T18:18:50.286Z,32.85
2019-04-10T18:21:22.464Z,28.70
2019-04-10T18:23:57.936Z,32.95
2019-04-10T18:26:28.506Z,35.20
2019-04-10T18:29:00.869Z,32.53
2019-04-10T18:31:33.336Z,37.08
2019-04-10T18:34:07.076Z,41.08
2019-04-10T18:36:36.316Z,36.00
2019-04-10T18:39:12.776Z,36.30
2019-04-10T18:41:48.490Z,36.28
2019-04-10T18:44:19.293Z,34.75
2019-04-10T18:46:52.400Z,37.00
2019-04-10T18:49:23.191Z,42.17
2019-04-10T18:51:54.636Z,37.75
2019-04-10T18:54:26.918Z,47.08
2019-04-10T18:56:59.761Z,34.10
2019-04-10T18:59:38.630Z,33.70
2019-04-10T19:02:29.889Z,40.45
2019-04-10T19:05:11.768Z,33.85
2019-04-10T19:07:42.814Z,38.30
2019-04-10T19:10:14.738Z,39.65
2019-04-10T19:12:48.742Z,37.73
2019-04-10T19:15:24.412Z,36.05
2019-04-10T19:17:55.257Z,38.35
2019-04-10T19:20:27.706Z,39.73
2019-04-10T19:23:01.370Z,39.80
2019-04-10T19:25:34.652Z,37.98
2019-04-10T19:28:06.644Z,35.75
2019-04-10T19:30:53.149Z,41.92
2019-04-10T19:33:23.771Z,35.80
2019-04-10T19:35:56.864Z,40.52
2019-04-10T19:38:29.480Z,38.15
2019-04-10T19:41:21.306Z,41.28
2019-04-10T19:43:48.545Z,37.60
2019-04-10T19:46:25.828Z,31.45
2019-04-10T19:49:03.922Z,34.10
2019-04-10T19:51:34.764Z,33.65
2019-04-10T19:54:09.133Z,39.55
2019-04-10T19:56:41.160Z,44.83
2019-04-10T19:59:14.554Z,42.45
2019-04-10T20:01:52.760Z,36.00
2019-04-10T20:04:26.468Z,39.25
2019-04-10T20:06:56.901Z,45.00
2019-04-10T20:09:32.657Z,35.83
2019-04-10T20:12:09.030Z,41.33
2019-04-10T20:14:46.405Z,39.70
2019-04-10T20:17:17.142Z,42.88
2019-04-10T20:19:55.164Z,36.60
2019-04-10T20:22:25.063Z,36.85
2019-04-10T20:25:06.245Z,35.80
2019-04-10T20:27:35.948Z,35.78
2019-04-10T20:30:08.093Z,42.58
2019-04-10T20:32:55.070Z,37.48
2019-04-10T20:36:04.977Z,34.92
2019-04-10T20:39:07.693Z,41.70
2019-04-10T20:41:46.512Z,42.38
2019-04-10T20:44:07.868Z,36.15
2019-04-10T20:46:38.250Z,37.08
2019-04-10T20:49:09.899Z,39.42
2019-04-10T20:51:40.292Z,38.88
2019-04-10T20:54:10.725Z,37.40
2019-04-10T20:56:41.091Z,37.05
2019-04-10T20:59:34.968Z,41.58
2019-04-10T21:02:04.099Z,37.67
2019-04-10T21:05:14.779Z,34.50
2019-04-10T21:08:22.049Z,40.25
2019-04-10T21:11:28.969Z,37.90
2019-04-10T21:14:21.542Z,42.78
2019-04-10T21:17:14.503Z,39.95
2019-04-10T21:19:51.716Z,39.40
2019-04-10T21:22:55.593Z,43.42
2019-04-10T21:25:58.109Z,41.45
2019-04-10T21:28:56.235Z,34.05
2019-04-10T21:32:18.252Z,34.63
2019-04-10T21:34:49.318Z,29.37
2019-04-10T21:37:22.265Z,35.23
2019-04-10T21:39:54.183Z,35.28
2019-04-10T21:42:28.568Z,35.30
2019-04-10T21:45:02.103Z,39.55
2019-04-10T21:47:33.729Z,32.33
2019-04-10T21:50:04.536Z,37.53
2019-04-10T21:52:34.844Z,37.70
2019-04-10T21:55:06.630Z,37.50
2019-04-10T21:57:41.161Z,35.68
2019-04-10T22:00:21.115Z,39.10
2019-04-10T22:02:56.205Z,31.62
2019-04-10T22:05:28.286Z,31.82
2019-04-10T22:08:14.623Z,33.88
2019-04-10T22:10:48.235Z,28.38
2019-04-10T22:13:19.800Z,34.23
2019-04-10T22:15:51.882Z,33.55
2019-04-10T22:18:25.280Z,30.50
2019-04-10T22:21:00.512Z,31.45
2019-04-10T22:23:34.354Z,31.82
2019-04-10T22:26:05.508Z,34.65
2019-04-10T22:28:37.149Z,28.20
2019-04-10T22:31:09.863Z,28.27
2019-04-10T22:33:42.669Z,28.10
2019-04-10T22:36:17.176Z,30.62
2019-04-10T22:38:51.752Z,30.43
2019-04-10T22:41:30.296Z,29.80
2019-04-10T22:43:58.070Z,28.92
2019-04-10T22:46:30.352Z,33.00
2019-04-10T22:49:01.998Z,30.32
2019-04-10T22:51:33.291Z,35.75
2019-04-10T22:54:06.111Z,37.23
2019-04-10T22:56:37.917Z,32.40
2019-04-10T22:59:10.071Z,35.95
2019-04-10T23:02:00.418Z,31.35
2019-04-10T23:04:55.668Z,31.82
2019-04-10T23:07:28.136Z,32.03
2019-04-10T23:10:02.585Z,30.65
2019-04-10T23:12:35.365Z,28.38
2019-04-10T23:15:07.210Z,30.97
2019-04-10T23:17:39.741Z,25.20
2019-04-10T23:20:11.231Z,28.52
2019-04-10T23:22:43.203Z,29.37
2019-04-10T23:25:16.150Z,30.27
2019-04-10T23:27:51.959Z,27.55
2019-04-10T23:30:21.828Z,30.35
2019-04-10T23:32:59.591Z,25.70
2019-04-10T23:35:31.541Z,27.15
2019-04-10T23:38:03.478Z,28.50
2019-04-10T23:40:40.973Z,33.65
2019-04-10T23:43:15.455Z,27.48
2019-04-10T23:45:44.660Z,29.18
2019-04-10T23:48:15.022Z,26.17
2019-04-10T23:50:48.281Z,25.08
2019-04-10T23:53:20.465Z,25.12
2019-04-10T23:55:54.483Z,23.70
2019-04-10T23:58:24.791Z,24.35
